EDDG/FMO METAR and TAF weather

Enter ICAO airport designator
Station Type Date Time Source
EDDG METAR 2020/02/20 23:20 UTC NOAA

EDDG 202320Z 27013KT 9999 FEW018 SCT027 05/02 Q1013 NOSIG


Station Type Date Time Source
EDDG Decoded METAR 2020/02/20 23:20 UTC NOAA

Muenster / Osnabrueck, Germany (EDDG) 52-08N 007-42E 53M
Feb 20, 2020 - 06:20 PM EST / 2020.02.20 2320 UTC
Wind: from the W (270 degrees) at 15 MPH (13 KT):0
Visibility: greater than 7 mile(s):0
Sky conditions: partly cloudy
Temperature: 41 F (5 C)
Dew Point: 35 F (2 C)
Relative Humidity: 80%
Pressure (altimeter): 29.91 in. Hg (1013 hPa)
ob: EDDG 202320Z 27013KT 9999 FEW018 SCT027 05/02 Q1013 NOSIG
cycle: 23

Station Type Date Time Source
EDDG TAF 2020/02/20 18:27 UTC NOAA

TAF EDDG 201700Z 2018/2118 21015G25KT 9999 BKN035
BECMG 2019/2021 27015G30KT
TEMPO 2019/2022 29025G45KT 3000 +SHRA BKN010CB
TEMPO 2022/2024 SHRA BKN014TCU
BECMG 2023/2102 24013KT
TEMPO 2102/2110 25015G25KT
BECMG 2110/2112 23015G25KT

Example: see airport list